Time;durP1;ratioP1;P1;durP2;ratioP2;P2;SDS_P1;SDS_P2;PMS_P1;PMS_P2;Temp;Humidity;BMP_temperature;BMP_pressure;BME280_temperature;BME280_humidity;BME280_pressure;Samples;Min_cycle;Max_cycle;Signal;HPM_P1;HPM_P2
2024/01/15 00:05:03;;;;;;;3.80;2.80;;;;;;;0.95;63.52;97197.64;102676;1292;600075;-27
2024/01/15 00:07:30;;;;;;;6.70;3.40;;;;;;;1.10;62.62;97196.61;104918;1267;61200;-27
2024/01/15 00:09:58;;;;;;;7.40;4.00;;;;;;;0.87;62.41;97188.66;104879;1270;61193;-28
2024/01/15 00:12:26;;;;;;;7.30;4.10;;;;;;;0.64;62.79;97179.84;104888;1266;69951;-28
2024/01/15 00:14:53;;;;;;;5.10;3.40;;;;;;;0.48;63.17;97173.48;104794;1269;73567;-28
2024/01/15 00:17:21;;;;;;;4.80;3.50;;;;;;;0.38;63.41;97187.80;104864;1264;71541;-28
2024/01/15 00:19:49;;;;;;;5.00;3.20;;;;;;;0.27;63.89;97182.45;105139;1259;175069;-28
2024/01/15 00:22:17;;;;;;;5.40;3.60;;;;;;;0.12;64.27;97183.41;105265;1261;61106;-28
2024/01/15 00:24:44;;;;;;;5.80;4.10;;;;;;;0.13;64.58;97182.34;105305;1263;70675;-28
2024/01/15 00:27:12;;;;;;;7.10;3.40;;;;;;;0.03;64.85;97179.79;105206;1260;74282;-27
2024/01/15 00:37:19;;;;;;;4.70;3.00;;;;;;;0.63;62.70;97181.92;102681;1294;599294;-28
2024/01/15 00:39:47;;;;;;;8.80;6.10;;;;;;;0.59;62.85;97184.29;105051;1270;61276;-29
2024/01/15 00:42:14;;;;;;;4.20;3.10;;;;;;;0.38;63.09;97180.95;105067;1266;61177;-29
2024/01/15 00:44:42;;;;;;;6.20;3.00;;;;;;;0.29;63.31;97176.66;104831;1265;70342;-29
2024/01/15 00:54:51;;;;;;;5.30;3.80;;;;;;;-0.13;64.31;97165.15;102710;1301;598757;-28
2024/01/15 00:57:19;;;;;;;6.10;3.90;;;;;;;-0.19;64.39;97164.55;104868;1271;61206;-29
2024/01/15 01:07:25;;;;;;;6.80;3.90;;;;;;;0.89;62.24;97157.23;102742;1291;599153;-26
2024/01/15 01:09:53;;;;;;;9.60;3.30;;;;;;;0.68;62.07;97160.41;105059;1269;61133;-29
2024/01/15 01:19:57;;;;;;;6.80;4.70;;;;;;;0.07;64.09;97145.74;102611;1291;600499;-28
2024/01/15 01:22:25;;;;;;;6.70;4.10;;;;;;;-0.07;64.25;97145.33;104861;1267;61117;-29
2024/01/15 01:32:40;;;;;;;7.60;3.90;;;;;;;0.44;63.84;97135.52;103345;1283;599112;-30
2024/01/15 01:35:08;;;;;;;5.30;3.60;;;;;;;0.75;62.54;97139.46;105068;1263;61036;-29
2024/01/15 01:37:36;;;;;;;9.10;5.10;;;;;;;0.74;62.08;97128.95;105479;1256;61039;-29
2024/01/15 01:40:05;;;;;;;4.30;3.10;;;;;;;0.56;62.37;97122.36;105576;1257;70940;-29
2024/01/15 01:50:09;;;;;;;4.80;3.00;;;;;;;-0.04;64.49;97116.44;103103;1285;600147;-28
2024/01/15 01:52:37;;;;;;;4.60;3.10;;;;;;;-0.29;64.95;97114.69;105008;1270;61247;-29
2024/01/15 02:02:45;;;;;;;6.00;3.80;;;;;;;0.36;63.69;97122.02;103390;1283;599387;-28
2024/01/15 02:05:14;;;;;;;11.20;3.70;;;;;;;0.65;62.67;97122.38;105068;1267;61107;-29
2024/01/15 02:14:18;;;;;;;6.20;3.90;;;;;;;0.20;63.52;97121.33;103236;1287;598806;-28
2024/01/15 02:16:45;;;;;;;8.60;4.30;;;;;;;-0.02;63.97;97114.96;104883;1266;61167;-29
2024/01/15 02:19:17;;;;;;;9.10;4.30;;;;;;;-0.18;64.41;97110.23;104867;1270;62658;-29
2024/01/15 02:21:45;;;;;;;6.40;3.90;;;;;;;-0.31;64.97;97109.22;104820;1267;71021;-29
2024/01/15 02:24:12;;;;;;;6.20;3.30;;;;;;;-0.36;65.01;97111.98;104920;1266;72176;-29
2024/01/15 02:26:40;;;;;;;10.20;5.10;;;;;;;-0.42;65.27;97117.30;104807;1266;72459;-29
2024/01/15 02:29:08;;;;;;;5.10;3.40;;;;;;;-0.30;65.54;97109.48;104764;1266;183389;-29
2024/01/15 02:31:36;;;;;;;7.80;4.50;;;;;;;0.46;64.10;97108.73;105093;1263;61123;-28
2024/01/15 02:34:04;;;;;;;7.20;4.40;;;;;;;0.70;62.85;97107.14;105073;1268;72212;-28
2024/01/15 02:36:32;;;;;;;6.20;3.50;;;;;;;0.69;62.53;97100.08;105179;1268;73105;-28
2024/01/15 02:46:37;;;;;;;3.80;3.10;;;;;;;-0.03;64.45;97090.25;102635;1292;599495;-28
2024/01/15 02:49:05;;;;;;;6.70;4.20;;;;;;;-0.17;65.21;97092.23;104853;1269;61290;-29
2024/01/15 02:51:32;;;;;;;14.00;4.90;;;;;;;-0.27;65.41;97083.40;104874;1269;61219;-29
2024/01/15 02:54:00;;;;;;;6.70;4.40;;;;;;;-0.39;65.80;97082.66;104862;1270;72021;-29
2024/01/15 02:56:28;;;;;;;4.60;3.80;;;;;;;-0.53;66.82;97074.19;104815;1266;73175;-29
2024/01/15 02:58:55;;;;;;;9.10;4.30;;;;;;;0.22;65.18;97075.60;104827;1269;72678;-29
2024/01/15 03:06:22;;;;;;;10.20;4.90;;;;;;;0.02;64.74;97066.19;105207;1265;62224;-29
2024/01/15 03:08:50;;;;;;;7.20;4.30;;;;;;;-0.16;65.18;97067.63;105152;1263;70920;-29
2024/01/15 03:18:54;;;;;;;4.00;2.40;;;;;;;-0.65;67.42;97061.76;102685;1293;600175;-30
2024/01/15 03:21:22;;;;;;;5.40;3.90;;;;;;;-0.07;66.45;97068.18;104850;1268;61123;-28
2024/01/15 03:23:49;;;;;;;12.60;6.30;;;;;;;0.22;65.21;97070.48;104807;1267;61103;-28
2024/01/15 03:26:17;;;;;;;9.30;5.60;;;;;;;0.29;64.60;97071.33;104843;1267;71085;-28
2024/01/15 03:28:45;;;;;;;6.70;4.50;;;;;;;0.11;64.89;97070.73;104795;1266;73006;-28
2024/01/15 03:38:48;;;;;;;16.30;5.30;;;;;;;-0.54;67.79;97088.73;102678;1292;600011;-28
2024/01/15 03:41:16;;;;;;;5.40;3.70;;;;;;;-0.37;67.60;97079.30;104927;1267;61274;-29
2024/01/15 03:43:43;;;;;;;5.40;3.60;;;;;;;0.39;65.65;97082.38;104882;1265;61205;-29
2024/01/15 03:46:12;;;;;;;13.40;5.70;;;;;;;0.43;64.90;97073.95;104704;1266;71215;-29
2024/01/15 03:48:40;;;;;;;9.60;4.70;;;;;;;0.20;65.30;97065.80;104826;1270;74282;-29
2024/01/15 03:51:08;;;;;;;11.10;4.40;;;;;;;0.15;65.42;97065.27;104830;1267;71447;-29
2024/01/15 04:01:21;;;;;;;9.40;5.20;;;;;;;-0.32;66.97;97056.80;102736;1290;600101;-26
2024/01/15 04:03:49;;;;;;;9.20;4.60;;;;;;;-0.05;67.11;97055.95;104867;1266;61069;-28
2024/01/15 04:06:16;;;;;;;10.20;5.10;;;;;;;0.45;65.28;97055.51;104877;1266;61116;-29
2024/01/15 04:08:44;;;;;;;8.60;3.90;;;;;;;0.51;64.53;97060.00;104862;1270;71510;-29
2024/01/15 04:11:12;;;;;;;16.20;7.00;;;;;;;0.32;65.08;97059.20;104861;1264;73039;-29
2024/01/15 04:21:18;;;;;;;7.70;3.70;;;;;;;-0.20;66.82;97070.63;102730;1291;600224;-28
2024/01/15 04:23:46;;;;;;;10.70;4.50;;;;;;;-0.54;67.68;97071.22;105067;1265;61211;-29
2024/01/15 04:26:13;;;;;;;8.60;4.40;;;;;;;-0.35;67.70;97074.20;104833;1270;61080;-29
2024/01/15 04:28:41;;;;;;;12.30;5.70;;;;;;;0.18;66.17;97079.45;104833;1267;71037;-29
2024/01/15 04:31:08;;;;;;;8.60;4.60;;;;;;;0.51;64.78;97079.67;104851;1272;73186;-29
2024/01/15 04:33:36;;;;;;;7.90;4.10;;;;;;;0.42;64.63;97077.05;104800;1267;71372;-29
2024/01/15 04:42:41;;;;;;;6.70;3.50;;;;;;;-0.07;65.72;97065.47;102672;1292;600598;-28
2024/01/15 04:52:50;;;;;;;5.80;3.20;;;;;;;0.43;64.85;97068.31;103153;1285;599448;-29
2024/01/15 04:55:18;;;;;;;7.10;4.70;;;;;;;0.49;64.13;97061.03;105098;1263;61138;-29
2024/01/15 04:57:46;;;;;;;7.40;3.90;;;;;;;0.27;64.33;97059.17;105067;1263;61177;-29
2024/01/15 05:00:14;;;;;;;9.00;5.10;;;;;;;0.09;64.88;97060.73;105054;1263;70976;-29
2024/01/15 05:02:42;;;;;;;6.20;4.40;;;;;;;-0.06;65.05;97057.05;105168;1263;74323;-29
2024/01/15 05:05:10;;;;;;;4.70;3.20;;;;;;;-0.36;66.43;97053.83;105067;1263;72608;-29
2024/01/15 05:07:37;;;;;;;4.90;3.00;;;;;;;-0.46;66.95;97055.86;105059;1265;172546;-29
2024/01/15 05:10:07;;;;;;;4.50;3.00;;;;;;;-0.48;67.37;97054.27;105204;1263;61125;-29
2024/01/15 05:12:35;;;;;;;9.50;4.10;;;;;;;0.03;66.97;97053.52;105169;1267;72238;-29
2024/01/15 05:15:03;;;;;;;3.00;2.20;;;;;;;0.10;65.88;97048.06;105192;1265;73188;-29
2024/01/15 05:25:07;;;;;;;6.30;3.60;;;;;;;-0.14;66.26;97047.03;103134;1286;600043;-28
2024/01/15 05:27:34;;;;;;;7.70;4.50;;;;;;;-0.52;67.17;97041.92;104785;1270;61272;-29
2024/01/15 05:30:03;;;;;;;6.00;4.10;;;;;;;-0.63;67.38;97041.84;104760;1267;61120;-29
2024/01/15 05:32:32;;;;;;;5.70;3.60;;;;;;;-0.73;67.89;97033.42;104869;1270;71000;-29
2024/01/15 05:34:59;;;;;;;9.20;4.40;;;;;;;-0.22;66.42;97036.17;104840;1267;74314;-29
2024/01/15 05:37:27;;;;;;;7.00;4.50;;;;;;;0.13;64.92;97033.72;104786;1267;71397;-29
2024/01/15 05:39:55;;;;;;;8.50;4.90;;;;;;;0.11;64.39;97029.11;105058;1264;173798;-29
2024/01/15 05:42:23;;;;;;;3.30;2.60;;;;;;;-0.18;64.92;97022.71;105115;1266;61068;-29
2024/01/15 05:44:51;;;;;;;4.40;3.30;;;;;;;-0.38;65.54;97020.70;105029;1269;72268;-29
2024/01/15 05:47:18;;;;;;;11.30;5.90;;;;;;;-0.43;65.83;97024.84;105147;1269;72011;-29
2024/01/15 05:49:46;;;;;;;5.40;4.10;;;;;;;-0.64;66.65;97018.55;105126;1264;72663;-29
2024/01/15 05:52:13;;;;;;;3.90;2.80;;;;;;;-0.72;66.83;97021.46;104838;1269;61277;-29
2024/01/15 05:54:41;;;;;;;3.10;2.40;;;;;;;-0.75;67.13;97010.56;104832;1266;61201;-29
2024/01/15 05:57:09;;;;;;;4.60;3.50;;;;;;;-0.26;65.85;97014.05;105073;1269;71783;-29
2024/01/15 06:07:12;;;;;;;6.50;3.50;;;;;;;-0.20;64.69;97008.89;102699;1290;600724;-28
2024/01/15 06:09:40;;;;;;;5.80;3.40;;;;;;;-0.30;65.08;97005.33;105182;1262;61126;-29
2024/01/15 06:12:08;;;;;;;5.70;3.00;;;;;;;-0.49;65.59;97005.39;105211;1264;61106;-29
2024/01/15 06:22:12;;;;;;;5.70;3.20;;;;;;;0.20;64.63;97005.59;102653;1292;600139;-28
2024/01/15 06:24:40;;;;;;;6.50;3.80;;;;;;;0.44;62.82;97001.95;104738;1267;61125;-28
2024/01/15 06:27:08;;;;;;;5.00;3.40;;;;;;;0.36;62.53;97008.51;104699;1269;61004;-28
2024/01/15 06:29:37;;;;;;;4.10;3.60;;;;;;;0.15;62.80;97000.80;104760;1267;70982;-28
2024/01/15 06:32:05;;;;;;;6.40;3.80;;;;;;;0.01;63.30;96999.42;104832;1271;74288;-28
2024/01/15 06:34:32;;;;;;;8.40;3.30;;;;;;;-0.27;64.02;97003.41;104753;1269;71773;-29
2024/01/15 06:37:00;;;;;;;6.40;3.40;;;;;;;-0.36;64.37;97006.08;104914;1265;182173;-29
2024/01/15 06:39:28;;;;;;;5.00;3.40;;;;;;;-0.40;64.48;97004.16;105018;1265;61144;-28
2024/01/15 06:41:56;;;;;;;6.30;4.20;;;;;;;-0.52;64.52;97006.01;105032;1266;72206;-28
2024/01/15 06:44:23;;;;;;;5.30;3.90;;;;;;;-0.65;65.16;97010.95;105036;1268;73140;-28
2024/01/15 06:46:51;;;;;;;5.90;3.60;;;;;;;-0.32;64.46;97016.16;104985;1266;72738;-28
2024/01/15 06:49:19;;;;;;;3.70;2.60;;;;;;;0.33;62.53;97016.40;104924;1266;61077;-28
2024/01/15 06:51:47;;;;;;;3.50;2.10;;;;;;;0.52;61.53;97015.95;104726;1271;61116;-28
2024/01/15 06:54:16;;;;;;;7.00;3.80;;;;;;;0.32;61.33;97012.23;104853;1266;71803;-28
2024/01/15 06:56:43;;;;;;;5.80;3.50;;;;;;;0.36;61.30;97012.27;108722;1264;73186;-29
2024/01/15 06:59:11;;;;;;;11.20;3.70;;;;;;;0.11;61.59;97009.77;108729;1263;72309;-29
2024/01/15 07:01:40;;;;;;;5.90;3.70;;;;;;;-0.13;62.53;97005.83;108702;1264;58834;-29
2024/01/15 07:04:08;;;;;;;6.00;3.80;;;;;;;-0.20;62.78;97005.85;108738;1264;60076;-29
2024/01/15 07:06:35;;;;;;;10.30;3.90;;;;;;;-0.16;62.37;97009.64;108728;1264;74009;-29
2024/01/15 07:09:03;;;;;;;2.40;1.70;;;;;;;-0.27;63.02;97009.69;108723;1263;76614;-29
2024/01/15 07:11:31;;;;;;;5.20;3.70;;;;;;;-0.26;63.07;97008.27;108612;1264;71498;-29
2024/01/15 07:13:58;;;;;;;6.40;3.80;;;;;;;-0.19;62.64;97004.05;108657;1265;60190;-29
2024/01/15 07:16:26;;;;;;;7.90;4.70;;;;;;;-0.22;62.77;97003.76;108669;1263;58738;-30
2024/01/15 07:19:04;;;;;;;5.50;3.40;;;;;;;-0.41;63.09;96991.92;108701;1263;72878;-29
2024/01/15 07:21:32;;;;;;;4.20;2.50;;;;;;;-0.32;62.90;96984.33;108617;1263;71892;-29
2024/01/15 07:24:00;;;;;;;8.00;3.80;;;;;;;-0.29;62.77;96984.26;108718;1266;72693;-29
2024/01/15 07:26:27;;;;;;;7.70;3.80;;;;;;;-0.32;62.87;96980.92;108625;1265;58826;-29
2024/01/15 07:28:55;;;;;;;8.10;4.60;;;;;;;-0.35;63.02;96976.14;108649;1266;58886;-31
2024/01/15 07:31:23;;;;;;;6.00;3.20;;;;;;;-0.27;62.97;96975.09;108656;1265;73124;-29
2024/01/15 07:33:50;;;;;;;5.70;4.00;;;;;;;-0.14;63.04;96977.45;108643;1265;73220;-29
2024/01/15 07:36:18;;;;;;;4.50;3.60;;;;;;;0.18;63.26;96964.05;108620;1265;72732;-29
2024/01/15 07:38:45;;;;;;;4.40;2.70;;;;;;;0.56;62.26;96974.67;108643;1265;58742;-29
2024/01/15 07:41:13;;;;;;;2.50;2.20;;;;;;;0.89;61.07;96973.91;108655;1265;60112;-29
2024/01/15 07:43:41;;;;;;;4.20;2.80;;;;;;;0.81;60.45;96975.39;108576;1265;73064;-29
2024/01/15 07:46:08;;;;;;;4.30;3.20;;;;;;;0.80;60.21;96974.63;108625;1265;74390;-27
2024/01/15 07:48:36;;;;;;;3.70;2.60;;;;;;;0.68;60.08;96972.52;108628;1265;71497;-29
2024/01/15 07:51:04;;;;;;;5.10;3.50;;;;;;;0.66;60.25;96977.86;108617;1268;60223;-28
2024/01/15 07:53:32;;;;;;;7.60;3.90;;;;;;;0.59;60.13;96977.80;108558;1265;63380;-28
2024/01/15 07:55:59;;;;;;;9.20;4.50;;;;;;;0.52;60.60;96969.17;108568;1265;73188;-32
2024/01/15 07:58:27;;;;;;;8.50;4.20;;;;;;;0.37;60.98;96971.09;108637;1265;74584;-29
2024/01/15 08:00:54;;;;;;;10.60;5.00;;;;;;;0.21;61.10;96959.41;108621;1265;74707;-29
2024/01/15 08:03:22;;;;;;;9.20;5.10;;;;;;;0.31;61.08;96967.08;108812;1262;59278;-29
2024/01/15 08:05:52;;;;;;;5.10;3.80;;;;;;;0.15;61.53;96965.16;108821;1262;58736;-29
2024/01/15 08:08:21;;;;;;;6.80;4.30;;;;;;;0.12;61.77;96962.29;108821;1262;75015;-29
2024/01/15 08:10:49;;;;;;;8.10;4.00;;;;;;;0.09;61.73;96947.12;108838;1262;74297;-29
2024/01/15 08:13:16;;;;;;;6.10;3.40;;;;;;;0.05;62.03;96948.27;108783;1262;72646;-29
2024/01/15 08:15:44;;;;;;;4.70;3.30;;;;;;;0.06;61.77;96950.09;108717;1265;60793;-29
2024/01/15 08:18:12;;;;;;;6.50;3.60;;;;;;;0.19;61.63;96956.30;108788;1262;58757;-28
2024/01/15 08:20:39;;;;;;;6.40;3.90;;;;;;;0.11;61.29;96949.23;108818;1262;73227;-28
2024/01/15 08:23:07;;;;;;;5.70;4.00;;;;;;;0.13;61.50;96952.80;109023;1259;73384;-29
2024/01/15 08:25:34;;;;;;;5.40;4.10;;;;;;;0.13;61.46;96952.35;109018;1259;72901;-28
2024/01/15 08:28:02;;;;;;;5.50;3.60;;;;;;;0.11;61.36;96953.67;109030;1259;59219;-28
2024/01/15 08:30:30;;;;;;;7.70;4.40;;;;;;;0.13;61.48;96951.80;109018;1259;60120;-28
2024/01/15 08:32:59;;;;;;;6.60;4.00;;;;;;;0.23;61.12;96951.91;108879;1259;73040;-28
2024/01/15 08:35:35;;;;;;;10.70;5.20;;;;;;;0.32;60.79;96949.78;109010;1259;74293;-28
2024/01/15 08:38:03;;;;;;;4.70;3.20;;;;;;;0.44;60.41;96949.74;109039;1259;72457;-28
2024/01/15 08:40:30;;;;;;;4.40;2.90;;;;;;;0.38;60.40;96939.06;109008;1259;58879;-28
2024/01/15 08:42:58;;;;;;;8.80;4.50;;;;;;;0.55;59.96;96939.55;108962;1259;62166;-28
2024/01/15 08:45:26;;;;;;;8.70;4.80;;;;;;;0.59;59.91;96938.55;109035;1262;75095;-28
2024/01/15 08:47:59;;;;;;;4.10;2.60;;;;;;;0.60;59.93;96935.09;109025;1259;74340;-28
2024/01/15 08:50:26;;;;;;;5.70;3.10;;;;;;;0.72;59.46;96930.23;108914;1259;72763;-28
2024/01/15 08:52:54;;;;;;;6.30;3.80;;;;;;;0.64;59.86;96925.70;109004;1258;58828;-28
2024/01/15 08:55:22;;;;;;;7.00;3.90;;;;;;;0.63;59.55;96924.98;109059;1259;59010;-28
2024/01/15 08:57:50;;;;;;;7.60;4.30;;;;;;;0.68;59.15;96923.90;108942;1259;73081;-28
2024/01/15 09:00:18;;;;;;;5.70;3.70;;;;;;;0.70;59.34;96925.06;108920;1259;74325;-27
2024/01/15 09:02:45;;;;;;;7.00;4.40;;;;;;;0.80;59.04;96927.57;108894;1259;73085;-28
2024/01/15 09:05:13;;;;;;;4.20;2.80;;;;;;;0.81;58.81;96929.92;108989;1263;58930;-28
2024/01/15 09:07:41;;;;;;;4.40;3.30;;;;;;;0.97;58.69;96925.64;109037;1259;62226;-28
2024/01/15 09:10:08;;;;;;;8.30;4.90;;;;;;;0.85;58.83;96922.30;109015;1259;75186;-28
2024/01/15 09:12:36;;;;;;;5.90;3.80;;;;;;;0.65;58.88;96917.61;108996;1259;76337;-28
2024/01/15 09:15:04;;;;;;;7.60;4.60;;;;;;;0.83;58.62;96914.92;109015;1259;74198;-28
2024/01/15 09:17:32;;;;;;;5.30;3.60;;;;;;;0.86;58.71;96912.48;108996;1259;59087;-28
2024/01/15 09:20:00;;;;;;;5.30;3.80;;;;;;;0.90;58.64;96905.98;109042;1259;61099;-28
2024/01/15 09:22:28;;;;;;;6.40;4.00;;;;;;;1.01;58.52;96904.17;109030;1259;73044;-28
2024/01/15 09:24:55;;;;;;;6.30;2.60;;;;;;;1.04;58.51;96901.38;109013;1259;72460;-28
2024/01/15 09:27:23;;;;;;;6.20;3.90;;;;;;;1.05;58.60;96895.66;108942;1262;72713;-28
2024/01/15 09:29:51;;;;;;;6.10;3.00;;;;;;;0.97;59.03;96893.34;108951;1259;60154;-28
2024/01/15 09:32:18;;;;;;;6.90;3.80;;;;;;;1.02;58.94;96889.56;108912;1259;60059;-28
2024/01/15 09:34:46;;;;;;;7.00;4.00;;;;;;;1.09;58.78;96887.65;108919;1259;70765;-28
2024/01/15 09:37:14;;;;;;;5.40;3.30;;;;;;;1.24;58.32;96882.20;108905;1259;73261;-28
2024/01/15 09:40:02;;;;;;;5.10;3.70;;;;;;;1.34;57.39;96877.86;108822;1259;72291;-28
2024/01/15 09:42:30;;;;;;;6.20;4.20;;;;;;;1.40;57.24;96877.04;108886;1259;60295;-28
2024/01/15 09:44:58;;;;;;;6.00;4.00;;;;;;;1.32;56.73;96868.60;108915;1259;60011;-28
2024/01/15 09:47:25;;;;;;;7.60;4.30;;;;;;;1.67;56.08;96863.36;108975;1259;74159;-28
2024/01/15 09:49:53;;;;;;;7.80;3.90;;;;;;;1.82;55.53;96867.91;108897;1259;76244;-28
2024/01/15 09:52:20;;;;;;;4.90;3.90;;;;;;;1.84;55.29;96862.95;108943;1259;74602;-28
2024/01/15 09:54:48;;;;;;;4.70;2.90;;;;;;;1.81;55.19;96866.95;108797;1259;60646;-28
2024/01/15 09:57:16;;;;;;;5.70;3.40;;;;;;;1.73;55.24;96869.54;108913;1260;59845;-28
2024/01/15 09:59:44;;;;;;;5.90;2.90;;;;;;;2.04;54.72;96866.19;108908;1259;74507;-29
2024/01/15 10:02:14;;;;;;;4.70;2.50;;;;;;;2.09;54.31;96857.71;108889;1259;73376;-28
2024/01/15 10:04:43;;;;;;;4.80;3.40;;;;;;;2.10;54.29;96856.15;108752;1259;73441;-28
2024/01/15 10:07:15;;;;;;;6.40;3.00;;;;;;;2.09;54.29;96859.29;108875;1259;58856;-28
2024/01/15 10:09:42;;;;;;;6.00;3.10;;;;;;;2.28;53.81;96854.66;108930;1259;60894;-29
2024/01/15 10:12:10;;;;;;;5.10;3.00;;;;;;;2.26;53.76;96850.22;108981;1259;73084;-28
2024/01/15 10:14:37;;;;;;;6.20;3.60;;;;;;;2.24;54.03;96847.45;108890;1259;73542;-28
2024/01/15 10:17:13;;;;;;;8.90;3.70;;;;;;;2.32;53.77;96846.11;108918;1264;71368;-28
2024/01/15 10:19:41;;;;;;;7.20;3.40;;;;;;;2.14;54.02;96843.13;108935;1259;58894;-29
2024/01/15 10:22:15;;;;;;;3.90;3.20;;;;;;;2.13;54.04;96845.06;108963;1259;60972;-29
2024/01/15 10:24:43;;;;;;;5.10;2.80;;;;;;;2.31;53.86;96844.11;108962;1261;72802;-29
2024/01/15 10:27:10;;;;;;;4.20;3.30;;;;;;;2.51;53.60;96845.20;108922;1260;77060;-28
2024/01/15 10:29:38;;;;;;;3.30;2.40;;;;;;;2.62;53.12;96842.92;108891;1261;73650;-29
2024/01/15 10:32:08;;;;;;;6.80;3.30;;;;;;;2.75;52.51;96835.36;108919;1262;60190;-28
2024/01/15 10:34:42;;;;;;;7.10;3.20;;;;;;;2.72;52.49;96832.19;108770;1260;59580;-28
2024/01/15 10:37:11;;;;;;;7.80;4.20;;;;;;;2.66;52.81;96834.91;108874;1262;74129;-28
2024/01/15 10:39:39;;;;;;;8.40;3.90;;;;;;;2.85;52.74;96832.45;108928;1260;74573;-28
2024/01/15 10:42:06;;;;;;;7.10;4.50;;;;;;;3.11;52.22;96827.86;108923;1260;74865;-29
2024/01/15 10:44:35;;;;;;;3.10;2.50;;;;;;;3.16;51.86;96821.40;108910;1261;60631;-28
2024/01/15 10:47:03;;;;;;;4.90;3.40;;;;;;;3.31;51.53;96817.76;108875;1261;61552;-29
2024/01/15 10:49:30;;;;;;;6.10;2.50;;;;;;;3.27;51.58;96817.39;108873;1260;76185;-28
2024/01/15 10:52:03;;;;;;;4.80;3.30;;;;;;;3.39;51.33;96819.23;108921;1260;74768;-29
2024/01/15 10:54:31;;;;;;;4.30;2.60;;;;;;;3.08;51.73;96817.10;108852;1260;72630;-28
2024/01/15 10:56:59;;;;;;;6.00;3.40;;;;;;;3.03;52.27;96815.98;108750;1264;59308;-28
2024/01/15 10:59:27;;;;;;;7.10;4.10;;;;;;;3.12;51.97;96816.11;108941;1260;59490;-28
2024/01/15 11:01:54;;;;;;;4.90;2.70;;;;;;;3.07;52.11;96814.12;108930;1261;75772;-28
2024/01/15 11:04:23;;;;;;;5.10;3.40;;;;;;;3.32;51.80;96820.06;108849;1261;76890;-28
2024/01/15 11:06:55;;;;;;;3.40;1.80;;;;;;;3.55;51.72;96824.70;108868;1259;71422;-29
2024/01/15 11:09:24;;;;;;;6.40;3.50;;;;;;;3.63;51.03;96803.40;108781;1260;60797;-29
2024/01/15 11:12:06;;;;;;;5.20;3.10;;;;;;;3.47;51.35;96804.88;108931;1260;60974;-29
2024/01/15 11:14:44;;;;;;;4.60;2.90;;;;;;;3.09;52.10;96803.45;108797;1259;72889;-29
2024/01/15 11:17:12;;;;;;;4.00;3.00;;;;;;;2.92;52.67;96789.73;108768;1260;74494;-29
2024/01/15 11:19:47;;;;;;;5.00;2.60;;;;;;;3.07;52.13;96796.26;108895;1259;74869;-30
2024/01/15 11:22:30;;;;;;;7.00;3.20;;;;;;;3.23;51.84;96785.09;108701;1266;58831;-29
2024/01/15 11:25:02;;;;;;;3.90;2.50;;;;;;;3.24;51.86;96781.64;108762;1264;60922;-29
2024/01/15 11:28:03;;;;;;;4.50;2.70;;;;;;;3.61;51.37;96783.21;108720;1263;73313;-29
2024/01/15 11:30:36;;;;;;;4.30;2.90;;;;;;;4.18;50.11;96783.39;108739;1261;75406;-29
2024/01/15 11:33:07;;;;;;;4.90;2.70;;;;;;;4.67;49.18;96778.46;108754;1262;74928;-29
2024/01/15 11:35:50;;;;;;;8.20;3.00;;;;;;;4.93;48.39;96773.98;108854;1261;59542;-29
2024/01/15 11:38:29;;;;;;;4.80;2.80;;;;;;;4.97;48.21;96776.02;108744;1262;61887;-29
2024/01/15 11:40:56;;;;;;;5.10;3.00;;;;;;;4.63;48.46;96784.19;108850;1262;74144;-29
2024/01/15 11:43:24;;;;;;;6.60;3.30;;;;;;;4.33;49.35;96773.94;108744;1262;72280;-29
2024/01/15 11:45:52;;;;;;;3.30;2.30;;;;;;;4.09;49.91;96774.44;108822;1262;73577;-29
2024/01/15 11:48:21;;;;;;;4.40;2.30;;;;;;;3.83;50.20;96764.63;108824;1263;59296;-29
2024/01/15 11:50:50;;;;;;;4.30;2.40;;;;;;;3.54;50.59;96764.06;108842;1262;62814;-29
2024/01/15 11:53:28;;;;;;;3.40;2.20;;;;;;;3.53;50.72;96771.56;108844;1262;75780;-29
2024/01/15 11:55:58;;;;;;;3.40;2.70;;;;;;;3.38;51.26;96768.89;108744;1262;76333;-29
2024/01/15 11:58:25;;;;;;;5.10;3.10;;;;;;;3.41;51.43;96772.59;108734;1262;74826;-29
2024/01/15 12:00:54;;;;;;;4.60;2.90;;;;;;;3.59;50.94;96777.59;108712;1261;58787;-29
2024/01/15 12:03:23;;;;;;;6.70;3.70;;;;;;;3.62;51.06;96777.83;108824;1262;60968;-29
2024/01/15 12:05:53;;;;;;;4.40;2.80;;;;;;;3.51;51.44;96775.48;108767;1262;72939;-29
2024/01/15 12:08:25;;;;;;;4.90;2.60;;;;;;;3.23;51.80;96774.19;108834;1263;76680;-29
2024/01/15 12:10:52;;;;;;;4.60;2.60;;;;;;;3.03;52.33;96780.47;108814;1262;74748;-29
2024/01/15 12:13:20;;;;;;;5.40;3.50;;;;;;;2.89;53.44;96777.95;108808;1262;61015;-29
2024/01/15 12:15:48;;;;;;;6.50;4.10;;;;;;;2.73;53.40;96778.79;108764;1261;61433;-29
2024/01/15 12:18:18;;;;;;;5.20;3.30;;;;;;;2.78;53.47;96775.09;108768;1262;72678;-29
2024/01/15 12:20:46;;;;;;;4.30;2.60;;;;;;;2.68;53.65;96774.95;108754;1260;74113;-29
2024/01/15 12:23:16;;;;;;;5.50;3.50;;;;;;;2.68;53.59;96775.83;108897;1260;72733;-29
2024/01/15 12:25:44;;;;;;;5.10;4.10;;;;;;;2.56;54.25;96770.98;108859;1261;59578;-28
2024/01/15 12:28:12;;;;;;;6.60;3.30;;;;;;;2.42;54.67;96767.90;108747;1261;60538;-29
2024/01/15 12:30:40;;;;;;;6.40;3.70;;;;;;;2.26;54.90;96757.77;108759;1260;75365;-29
2024/01/15 12:33:08;;;;;;;6.30;3.90;;;;;;;2.28;54.89;96757.73;108923;1260;72776;-29
2024/01/15 12:35:37;;;;;;;6.50;3.30;;;;;;;2.35;54.94;96765.02;108825;1262;73584;-29
2024/01/15 12:38:05;;;;;;;6.40;3.90;;;;;;;2.39;54.62;96772.03;108880;1260;60646;-28
2024/01/15 12:40:34;;;;;;;7.00;3.60;;;;;;;2.45;54.27;96763.89;108823;1266;60967;-29
2024/01/15 12:43:05;;;;;;;6.10;4.00;;;;;;;2.12;55.34;96754.60;108909;1263;72162;-29
2024/01/15 12:45:33;;;;;;;3.90;3.00;;;;;;;2.14;54.92;96751.04;108624;1260;74809;-29
2024/01/15 12:48:00;;;;;;;5.30;3.30;;;;;;;2.17;54.84;96751.61;108875;1261;71547;-29
2024/01/15 12:50:28;;;;;;;5.30;2.70;;;;;;;2.30;54.66;96758.10;108893;1261;59269;-29
2024/01/15 12:52:56;;;;;;;4.80;2.40;;;;;;;2.06;54.96;96751.89;108853;1260;61519;-29
2024/01/15 12:55:24;;;;;;;4.50;2.50;;;;;;;2.19;54.73;96760.85;108914;1261;72705;-29
2024/01/15 12:57:54;;;;;;;2.50;2.20;;;;;;;2.21;54.58;96762.27;108837;1261;76087;-29
2024/01/15 13:00:25;;;;;;;3.90;2.40;;;;;;;2.13;54.99;96760.85;108799;1261;74374;-29
2024/01/15 13:02:54;;;;;;;4.40;3.20;;;;;;;2.26;54.89;96766.25;108844;1260;59031;-28
2024/01/15 13:05:22;;;;;;;4.90;2.80;;;;;;;2.10;54.96;96765.86;108919;1262;62161;-29
2024/01/15 13:07:51;;;;;;;3.50;2.30;;;;;;;2.14;54.96;96757.72;108897;1260;73361;-28
2024/01/15 13:10:18;;;;;;;5.40;3.10;;;;;;;2.20;54.81;96751.36;108850;1261;76090;-29
2024/01/15 13:12:46;;;;;;;5.30;2.40;;;;;;;2.19;54.90;96751.49;108812;1261;70678;-29
2024/01/15 13:15:14;;;;;;;4.80;2.60;;;;;;;2.27;55.12;96750.95;108697;1262;58924;-28
2024/01/15 13:17:42;;;;;;;3.70;2.60;;;;;;;2.21;55.08;96748.91;108861;1260;60340;-28
2024/01/15 13:20:11;;;;;;;4.30;2.20;;;;;;;2.17;55.26;96743.89;108872;1263;74288;-29
2024/01/15 13:22:40;;;;;;;4.00;2.60;;;;;;;2.16;55.25;96744.31;108866;1260;75944;-28
2024/01/15 13:25:11;;;;;;;2.80;2.00;;;;;;;2.20;54.79;96737.88;108905;1263;72854;-28
2024/01/15 13:27:41;;;;;;;6.00;2.50;;;;;;;2.25;54.77;96746.16;108752;1261;58878;-28
2024/01/15 13:30:12;;;;;;;3.50;2.00;;;;;;;2.15;55.23;96738.13;108746;1262;58694;-29
2024/01/15 13:32:43;;;;;;;2.00;1.70;;;;;;;2.20;55.26;96739.55;108748;1264;75367;-28
2024/01/15 13:35:13;;;;;;;4.80;2.90;;;;;;;2.11;55.65;96740.98;108713;1261;74029;-29
2024/01/15 13:37:43;;;;;;;4.20;2.50;;;;;;;2.17;55.46;96748.23;108697;1262;73277;-29
2024/01/15 13:40:16;;;;;;;3.40;2.50;;;;;;;2.15;55.44;96744.94;108730;1263;60349;-28
2024/01/15 13:42:48;;;;;;;6.00;2.20;;;;;;;2.14;55.32;96744.04;108770;1262;61253;-28
2024/01/15 13:45:20;;;;;;;4.40;2.40;;;;;;;2.18;55.38;96747.45;108633;1262;76033;-28
2024/01/15 13:47:51;;;;;;;2.20;1.80;;;;;;;2.05;55.69;96745.62;108759;1263;76588;-28
2024/01/15 13:50:20;;;;;;;7.20;2.40;;;;;;;2.16;55.57;96746.91;108675;1262;70985;-28
2024/01/15 13:52:53;;;;;;;5.00;2.00;;;;;;;2.17;55.57;96744.45;108706;1262;59352;-28
2024/01/15 13:55:23;;;;;;;6.00;3.10;;;;;;;2.01;55.94;96744.73;108702;1262;59103;-28
2024/01/15 13:57:53;;;;;;;3.50;2.40;;;;;;;2.18;55.65;96747.94;108760;1264;73832;-28
2024/01/15 14:00:23;;;;;;;5.00;2.80;;;;;;;2.07;55.87;96744.90;108744;1264;75952;-28